sensor_id;sensor_type;location;lat;lon;timestamp;pressure;altitude;pressure_sealevel;temperature;humidity
67009;BME280;53922;52.080;4.748;2022-07-09T00:00:27;102765.88;;;16.09;100.00
67009;BME280;53922;52.080;4.748;2022-07-09T00:02:52;102763.16;;;16.05;100.00
67009;BME280;53922;52.080;4.748;2022-07-09T00:05:17;102762.19;;;16.02;100.00
67009;BME280;53922;52.080;4.748;2022-07-09T00:07:43;102756.72;;;15.97;100.00
67009;BME280;53922;52.080;4.748;2022-07-09T00:10:08;102753.16;;;15.95;100.00
67009;BME280;53922;52.080;4.748;2022-07-09T00:12:33;102753.03;;;15.90;100.00
67009;BME280;53922;52.080;4.748;2022-07-09T00:14:59;102749.38;;;15.87;100.00
67009;BME280;53922;52.080;4.748;2022-07-09T00:17:24;102742.19;;;15.83;100.00
67009;BME280;53922;52.080;4.748;2022-07-09T00:19:51;102752.84;;;15.83;100.00
67009;BME280;53922;52.080;4.748;2022-07-09T00:22:16;102753.78;;;15.85;100.00
67009;BME280;53922;52.080;4.748;2022-07-09T00:24:41;102758.31;;;15.89;100.00
67009;BME280;53922;52.080;4.748;2022-07-09T00:27:06;102758.34;;;15.90;100.00
67009;BME280;53922;52.080;4.748;2022-07-09T00:29:32;102758.38;;;15.92;100.00
67009;BME280;53922;52.080;4.748;2022-07-09T00:31:57;102753.97;;;15.93;100.00
67009;BME280;53922;52.080;4.748;2022-07-09T00:34:22;102753.91;;;15.91;100.00
67009;BME280;53922;52.080;4.748;2022-07-09T00:36:47;102756.56;;;15.91;100.00
67009;BME280;53922;52.080;4.748;2022-07-09T00:39:13;102764.66;;;15.94;100.00
67009;BME280;53922;52.080;4.748;2022-07-09T00:41:38;102751.31;;;15.93;100.00
67009;BME280;53922;52.080;4.748;2022-07-09T00:44:03;102761.03;;;15.92;100.00
67009;BME280;53922;52.080;4.748;2022-07-09T00:46:28;102753.84;;;15.88;100.00
67009;BME280;53922;52.080;4.748;2022-07-09T00:48:54;102752.00;;;15.85;100.00
67009;BME280;53922;52.080;4.748;2022-07-09T00:51:19;102750.19;;;15.83;100.00
67009;BME280;53922;52.080;4.748;2022-07-09T00:53:45;102745.56;;;15.77;100.00
67009;BME280;53922;52.080;4.748;2022-07-09T00:56:11;102740.13;;;15.72;100.00
67009;BME280;53922;52.080;4.748;2022-07-09T00:58:37;102738.19;;;15.67;100.00
67009;BME280;53922;52.080;4.748;2022-07-09T01:01:02;102733.72;;;15.66;100.00
67009;BME280;53922;52.080;4.748;2022-07-09T01:03:28;102745.22;;;15.65;100.00
67009;BME280;53922;52.080;4.748;2022-07-09T01:05:53;102736.31;;;15.63;100.00
67009;BME280;53922;52.080;4.748;2022-07-09T01:08:20;102742.50;;;15.62;100.00
67009;BME280;53922;52.080;4.748;2022-07-09T01:10:46;102732.69;;;15.59;100.00
67009;BME280;53922;52.080;4.748;2022-07-09T01:13:13;102729.03;;;15.55;100.00
67009;BME280;53922;52.080;4.748;2022-07-09T01:15:38;102729.94;;;15.56;100.00
67009;BME280;53922;52.080;4.748;2022-07-09T01:18:03;102742.56;;;15.65;100.00
67009;BME280;53922;52.080;4.748;2022-07-09T01:20:29;102744.38;;;15.66;100.00
67009;BME280;53922;52.080;4.748;2022-07-09T01:22:54;102739.91;;;15.65;100.00
67009;BME280;53922;52.080;4.748;2022-07-09T01:25:20;102734.72;;;15.69;100.00
67009;BME280;53922;52.080;4.748;2022-07-09T01:27:51;102735.47;;;15.64;100.00
67009;BME280;53922;52.080;4.748;2022-07-09T01:30:26;102737.19;;;15.62;100.00
67009;BME280;53922;52.080;4.748;2022-07-09T01:32:52;102736.28;;;15.61;100.00
67009;BME280;53922;52.080;4.748;2022-07-09T01:35:18;102717.63;;;15.59;100.00
67009;BME280;53922;52.080;4.748;2022-07-09T01:37:43;102716.59;;;15.54;100.00
67009;BME280;53922;52.080;4.748;2022-07-09T01:40:08;102720.91;;;15.49;100.00
67009;BME280;53922;52.080;4.748;2022-07-09T01:42:34;102719.94;;;15.47;100.00
67009;BME280;53922;52.080;4.748;2022-07-09T01:44:59;102705.75;;;15.47;100.00
67009;BME280;53922;52.080;4.748;2022-07-09T01:47:24;102709.25;;;15.44;100.00
67009;BME280;53922;52.080;4.748;2022-07-09T01:49:50;102706.59;;;15.44;100.00
67009;BME280;53922;52.080;4.748;2022-07-09T01:52:15;102710.03;;;15.40;100.00
67009;BME280;53922;52.080;4.748;2022-07-09T01:54:40;102713.56;;;15.40;100.00
67009;BME280;53922;52.080;4.748;2022-07-09T01:57:05;102716.22;;;15.40;100.00
67009;BME280;53922;52.080;4.748;2022-07-09T01:59:31;102705.56;;;15.39;100.00
67009;BME280;53922;52.080;4.748;2022-07-09T02:01:56;102703.75;;;15.38;100.00
67009;BME280;53922;52.080;4.748;2022-07-09T02:04:21;102704.72;;;15.40;100.00
67009;BME280;53922;52.080;4.748;2022-07-09T02:06:47;102701.09;;;15.38;100.00
67009;BME280;53922;52.080;4.748;2022-07-09T02:09:12;102693.97;;;15.37;100.00
67009;BME280;53922;52.080;4.748;2022-07-09T02:11:37;102697.47;;;15.34;100.00
67009;BME280;53922;52.080;4.748;2022-07-09T02:14:02;102698.38;;;15.35;100.00
67009;BME280;53922;52.080;4.748;2022-07-09T02:16:29;102696.75;;;15.40;100.00
67009;BME280;53922;52.080;4.748;2022-07-09T02:18:54;102693.13;;;15.38;100.00
67009;BME280;53922;52.080;4.748;2022-07-09T02:21:20;102692.28;;;15.39;100.00
67009;BME280;53922;52.080;4.748;2022-07-09T02:23:45;102690.41;;;15.35;100.00
67009;BME280;53922;52.080;4.748;2022-07-09T02:26:10;102694.78;;;15.33;100.00
67009;BME280;53922;52.080;4.748;2022-07-09T02:28:36;102685.84;;;15.31;100.00
67009;BME280;53922;52.080;4.748;2022-07-09T02:31:01;102687.50;;;15.27;100.00
67009;BME280;53922;52.080;4.748;2022-07-09T02:33:26;102685.69;;;15.24;100.00
67009;BME280;53922;52.080;4.748;2022-07-09T02:35:51;102682.09;;;15.22;100.00
67009;BME280;53922;52.080;4.748;2022-07-09T02:38:17;102686.56;;;15.23;100.00
67009;BME280;53922;52.080;4.748;2022-07-09T02:40:42;102685.69;;;15.24;100.00
67009;BME280;53922;52.080;4.748;2022-07-09T02:43:07;102679.53;;;15.27;100.00
67009;BME280;53922;52.080;4.748;2022-07-09T02:45:32;102681.34;;;15.28;100.00
67009;BME280;53922;52.080;4.748;2022-07-09T02:47:57;102687.66;;;15.32;100.00
67009;BME280;53922;52.080;4.748;2022-07-09T02:50:23;102686.81;;;15.34;100.00
67009;BME280;53922;52.080;4.748;2022-07-09T02:52:48;102683.31;;;15.35;100.00
67009;BME280;53922;52.080;4.748;2022-07-09T02:55:13;102676.28;;;15.37;100.00
67009;BME280;53922;52.080;4.748;2022-07-09T02:57:39;102676.19;;;15.34;100.00
67009;BME280;53922;52.080;4.748;2022-07-09T03:00:04;102670.00;;;15.34;100.00
67009;BME280;53922;52.080;4.748;2022-07-09T03:02:30;102670.84;;;15.33;100.00
67009;BME280;53922;52.080;4.748;2022-07-09T03:04:55;102664.56;;;15.29;100.00
67009;BME280;53922;52.080;4.748;2022-07-09T03:07:20;102662.69;;;15.25;100.00
67009;BME280;53922;52.080;4.748;2022-07-09T03:09:45;102668.78;;;15.21;100.00
67009;BME280;53922;52.080;4.748;2022-07-09T03:12:10;102658.06;;;15.19;100.00
67009;BME280;53922;52.080;4.748;2022-07-09T03:14:36;102666.16;;;15.22;100.00
67009;BME280;53922;52.080;4.748;2022-07-09T03:19:51;102659.06;;;15.23;100.00
67009;BME280;53922;52.080;4.748;2022-07-09T03:22:17;102654.75;;;15.26;100.00
67009;BME280;53922;52.080;4.748;2022-07-09T03:24:42;102654.78;;;15.28;100.00
67009;BME280;53922;52.080;4.748;2022-07-09T03:27:07;102652.22;;;15.31;100.00
67009;BME280;53922;52.080;4.748;2022-07-09T03:29:33;102646.97;;;15.34;100.00
67009;BME280;53922;52.080;4.748;2022-07-09T03:31:58;102650.59;;;15.38;100.00
67009;BME280;53922;52.080;4.748;2022-07-09T03:34:23;102643.66;;;15.43;100.00
67009;BME280;53922;52.080;4.748;2022-07-09T03:36:48;102653.63;;;15.52;100.00
67009;BME280;53922;52.080;4.748;2022-07-09T03:39:14;102654.69;;;15.58;100.00
67009;BME280;53922;52.080;4.748;2022-07-09T03:41:39;102647.66;;;15.62;100.00
67009;BME280;53922;52.080;4.748;2022-07-09T03:44:05;102645.88;;;15.61;100.00
67009;BME280;53922;52.080;4.748;2022-07-09T03:46:30;102650.41;;;15.65;100.00
67009;BME280;53922;52.080;4.748;2022-07-09T03:48:56;102647.81;;;15.68;100.00
67009;BME280;53922;52.080;4.748;2022-07-09T03:51:21;102651.47;;;15.73;100.00
67009;BME280;53922;52.080;4.748;2022-07-09T03:53:47;102651.63;;;15.80;100.00
67009;BME280;53922;52.080;4.748;2022-07-09T03:56:12;102646.50;;;15.86;100.00
67009;BME280;53922;52.080;4.748;2022-07-09T03:58:37;102653.88;;;15.96;100.00
67009;BME280;53922;52.080;4.748;2022-07-09T04:01:03;102660.13;;;16.00;100.00
67009;BME280;53922;52.080;4.748;2022-07-09T04:03:28;102651.28;;;16.01;100.00
67009;BME280;53922;52.080;4.748;2022-07-09T04:05:53;102651.28;;;16.01;100.00
67009;BME280;53922;52.080;4.748;2022-07-09T04:08:19;102653.22;;;16.06;100.00
67009;BME280;53922;52.080;4.748;2022-07-09T04:10:44;102653.28;;;16.11;100.00
67009;BME280;53922;52.080;4.748;2022-07-09T04:13:09;102648.03;;;16.13;100.00
67009;BME280;53922;52.080;4.748;2022-07-09T04:15:34;102652.53;;;16.15;100.00
67009;BME280;53922;52.080;4.748;2022-07-09T04:17:59;102656.09;;;16.17;100.00
67009;BME280;53922;52.080;4.748;2022-07-09T04:20:25;102659.72;;;16.21;100.00
67009;BME280;53922;52.080;4.748;2022-07-09T04:22:50;102649.88;;;16.15;100.00
67009;BME280;53922;52.080;4.748;2022-07-09T04:25:16;102650.69;;;16.13;100.00
67009;BME280;53922;52.080;4.748;2022-07-09T04:27:41;102653.22;;;16.06;100.00
67009;BME280;53922;52.080;4.748;2022-07-09T04:30:06;102652.34;;;16.08;100.00
67009;BME280;53922;52.080;4.748;2022-07-09T04:32:33;102652.28;;;16.06;100.00
67009;BME280;53922;52.080;4.748;2022-07-09T04:34:58;102652.28;;;16.06;100.00
67009;BME280;53922;52.080;4.748;2022-07-09T04:37:24;102646.13;;;16.07;100.00
67009;BME280;53922;52.080;4.748;2022-07-09T04:39:50;102650.72;;;16.14;100.00
67009;BME280;53922;52.080;4.748;2022-07-09T04:42:15;102647.34;;;16.21;100.00
67009;BME280;53922;52.080;4.748;2022-07-09T04:44:40;102646.44;;;16.21;100.00
67009;BME280;53922;52.080;4.748;2022-07-09T04:47:07;102641.16;;;16.22;100.00
67009;BME280;53922;52.080;4.748;2022-07-09T04:49:32;102643.75;;;16.21;100.00
67009;BME280;53922;52.080;4.748;2022-07-09T04:51:57;102634.91;;;16.22;100.00
67009;BME280;53922;52.080;4.748;2022-07-09T04:54:23;102634.03;;;16.21;100.00
67009;BME280;53922;52.080;4.748;2022-07-09T04:56:48;102623.41;;;16.23;100.00
67009;BME280;53922;52.080;4.748;2022-07-09T04:59:13;102630.53;;;16.24;100.00
67009;BME280;53922;52.080;4.748;2022-07-09T05:01:38;102623.41;;;16.23;100.00
67009;BME280;53922;52.080;4.748;2022-07-09T05:04:04;102626.13;;;16.26;100.00
67009;BME280;53922;52.080;4.748;2022-07-09T05:06:29;102617.41;;;16.33;100.00
67009;BME280;53922;52.080;4.748;2022-07-09T05:08:54;102608.72;;;16.42;100.00
67009;BME280;53922;52.080;4.748;2022-07-09T05:11:19;102615.03;;;16.47;100.00
67009;BME280;53922;52.080;4.748;2022-07-09T05:13:45;102626.75;;;16.54;100.00
67009;BME280;53922;52.080;4.748;2022-07-09T05:16:11;102622.44;;;16.61;100.00
67009;BME280;53922;52.080;4.748;2022-07-09T05:18:36;102612.84;;;16.69;100.00
67009;BME280;53922;52.080;4.748;2022-07-09T05:21:02;102613.84;;;16.76;100.00
67009;BME280;53922;52.080;4.748;2022-07-09T05:23:27;102621.84;;;16.76;100.00
67009;BME280;53922;52.080;4.748;2022-07-09T05:25:52;102615.59;;;16.75;100.00
67009;BME280;53922;52.080;4.748;2022-07-09T05:28:18;102619.19;;;16.77;100.00
67009;BME280;53922;52.080;4.748;2022-07-09T05:30:43;102615.81;;;16.84;100.00
67009;BME280;53922;52.080;4.748;2022-07-09T05:33:09;102622.13;;;16.90;100.00
67009;BME280;53922;52.080;4.748;2022-07-09T05:35:34;102619.66;;;16.99;100.00
67009;BME280;53922;52.080;4.748;2022-07-09T05:37:59;102614.44;;;17.05;100.00
67009;BME280;53922;52.080;4.748;2022-07-09T05:40:25;102610.06;;;17.10;100.00
67009;BME280;53922;52.080;4.748;2022-07-09T05:42:50;102616.50;;;17.22;100.00
67009;BME280;53922;52.080;4.748;2022-07-09T05:45:15;102625.63;;;17.34;100.00
67009;BME280;53922;52.080;4.748;2022-07-09T05:47:40;102628.56;;;17.50;100.00
67009;BME280;53922;52.080;4.748;2022-07-09T05:50:06;102631.31;;;17.55;100.00
67009;BME280;53922;52.080;4.748;2022-07-09T05:52:31;102619.66;;;17.49;99.32
67009;BME280;53922;52.080;4.748;2022-07-09T05:54:57;102622.38;;;17.54;99.54
67009;BME280;53922;52.080;4.748;2022-07-09T05:57:22;102634.97;;;17.61;99.91
67009;BME280;53922;52.080;4.748;2022-07-09T05:59:47;102636.00;;;17.71;99.84
67009;BME280;53922;52.080;4.748;2022-07-09T06:02:13;102632.69;;;17.84;100.00
67009;BME280;53922;52.080;4.748;2022-07-09T06:04:38;102635.50;;;17.94;99.42
67009;BME280;53922;52.080;4.748;2022-07-09T06:07:04;102631.31;;;18.13;98.19
67009;BME280;53922;52.080;4.748;2022-07-09T06:09:30;102638.84;;;18.42;96.24
67009;BME280;53922;52.080;4.748;2022-07-09T06:11:55;102629.28;;;18.61;94.54
67009;BME280;53922;52.080;4.748;2022-07-09T06:14:21;102636.63;;;18.79;94.36
67009;BME280;53922;52.080;4.748;2022-07-09T06:16:46;102638.63;;;18.94;93.07
67009;BME280;53922;52.080;4.748;2022-07-09T06:19:12;102637.94;;;19.15;92.45
67009;BME280;53922;52.080;4.748;2022-07-09T06:21:37;102633.56;;;19.23;90.88
67009;BME280;53922;52.080;4.748;2022-07-09T06:24:03;102622.19;;;19.48;89.54
67009;BME280;53922;52.080;4.748;2022-07-09T06:26:28;102617.56;;;19.31;88.24
67009;BME280;53922;52.080;4.748;2022-07-09T06:28:54;102622.84;;;19.23;88.32
67009;BME280;53922;52.080;4.748;2022-07-09T06:31:19;102636.13;;;19.12;89.56
67009;BME280;53922;52.080;4.748;2022-07-09T06:33:44;102643.16;;;19.04;90.01
67009;BME280;53922;52.080;4.748;2022-07-09T06:36:10;102643.19;;;19.07;90.01
67009;BME280;53922;52.080;4.748;2022-07-09T06:38:35;102640.50;;;19.07;90.78
67009;BME280;53922;52.080;4.748;2022-07-09T06:41:20;102644.97;;;19.07;88.77
67009;BME280;53922;52.080;4.748;2022-07-09T06:43:45;102647.72;;;19.11;88.78
67009;BME280;53922;52.080;4.748;2022-07-09T06:46:11;102650.25;;;19.01;89.85
67009;BME280;53922;52.080;4.748;2022-07-09T06:48:36;102659.19;;;19.01;89.50
67009;BME280;53922;52.080;4.748;2022-07-09T06:51:01;102655.53;;;18.94;87.17
67009;BME280;53922;52.080;4.748;2022-07-09T06:53:26;102642.22;;;18.99;86.44
67009;BME280;53922;52.080;4.748;2022-07-09T06:55:52;102651.03;;;18.90;86.45
67009;BME280;53922;52.080;4.748;2022-07-09T06:58:17;102651.19;;;19.06;87.29
67009;BME280;53922;52.080;4.748;2022-07-09T07:00:42;102656.91;;;19.41;86.76
67009;BME280;53922;52.080;4.748;2022-07-09T07:03:07;102653.31;;;19.39;84.78
67009;BME280;53922;52.080;4.748;2022-07-09T07:05:33;102650.00;;;19.65;84.45
67009;BME280;53922;52.080;4.748;2022-07-09T07:07:58;102643.63;;;19.54;83.30
67009;BME280;53922;52.080;4.748;2022-07-09T07:10:23;102655.19;;;19.50;83.12
67009;BME280;53922;52.080;4.748;2022-07-09T07:12:48;102664.09;;;19.47;83.20
67009;BME280;53922;52.080;4.748;2022-07-09T07:15:14;102671.47;;;19.73;81.61
67009;BME280;53922;52.080;4.748;2022-07-09T07:17:39;102671.63;;;19.93;81.81
67009;BME280;53922;52.080;4.748;2022-07-09T07:20:04;102656.50;;;19.98;79.87
67009;BME280;53922;52.080;4.748;2022-07-09T07:22:30;102667.16;;;19.93;80.23
67009;BME280;53922;52.080;4.748;2022-07-09T07:24:55;102668.94;;;19.91;79.86
67009;BME280;53922;52.080;4.748;2022-07-09T07:27:20;102669.59;;;19.67;80.58
67009;BME280;53922;52.080;4.748;2022-07-09T07:29:45;102671.34;;;19.62;81.04
67009;BME280;53922;52.080;4.748;2022-07-09T07:32:10;102671.28;;;19.56;81.76
67009;BME280;53922;52.080;4.748;2022-07-09T07:34:36;102668.63;;;19.54;81.42
67009;BME280;53922;52.080;4.748;2022-07-09T07:37:01;102676.53;;;19.42;80.78
67009;BME280;53922;52.080;4.748;2022-07-09T07:39:26;102671.97;;;19.32;80.70
67009;BME280;53922;52.080;4.748;2022-07-09T07:41:52;102667.38;;;19.18;81.06
67009;BME280;53922;52.080;4.748;2022-07-09T07:44:17;102671.78;;;19.13;81.94
67009;BME280;53922;52.080;4.748;2022-07-09T07:46:42;102664.63;;;19.09;80.46
67009;BME280;53922;52.080;4.748;2022-07-09T07:49:07;102672.84;;;19.30;80.93
67009;BME280;53922;52.080;4.748;2022-07-09T07:51:33;102672.97;;;19.44;80.39
67009;BME280;53922;52.080;4.748;2022-07-09T07:53:58;102672.22;;;19.56;80.21
67009;BME280;53922;52.080;4.748;2022-07-09T07:56:23;102666.88;;;19.62;79.88
67009;BME280;53922;52.080;4.748;2022-07-09T07:58:48;102667.75;;;19.58;79.38
67009;BME280;53922;52.080;4.748;2022-07-09T08:01:14;102665.88;;;19.46;79.46
67009;BME280;53922;52.080;4.748;2022-07-09T08:03:39;102661.41;;;19.45;79.18
67009;BME280;53922;52.080;4.748;2022-07-09T08:06:05;102666.81;;;19.52;79.47
67009;BME280;53922;52.080;4.748;2022-07-09T08:08:32;102664.19;;;19.61;79.01
67009;BME280;53922;52.080;4.748;2022-07-09T08:10:57;102667.84;;;19.68;78.16
67009;BME280;53922;52.080;4.748;2022-07-09T08:13:23;102671.59;;;19.90;77.63
67009;BME280;53922;52.080;4.748;2022-07-09T08:15:48;102660.09;;;20.03;76.42
67009;BME280;53922;52.080;4.748;2022-07-09T08:18:13;102664.41;;;19.83;78.66
67009;BME280;53922;52.080;4.748;2022-07-09T08:20:40;102666.25;;;19.87;78.11
67009;BME280;53922;52.080;4.748;2022-07-09T08:23:05;102661.81;;;19.95;76.80
67009;BME280;53922;52.080;4.748;2022-07-09T08:25:31;102667.13;;;19.86;75.35
67009;BME280;53922;52.080;4.748;2022-07-09T08:27:56;102666.38;;;20.05;75.51
67009;BME280;53922;52.080;4.748;2022-07-09T08:30:22;102669.97;;;20.14;72.43
67009;BME280;53922;52.080;4.748;2022-07-09T08:32:47;102671.09;;;20.56;73.75
67009;BME280;53922;52.080;4.748;2022-07-09T08:35:12;102672.16;;;20.89;72.31
67009;BME280;53922;52.080;4.748;2022-07-09T08:37:38;102673.09;;;21.05;71.57
67009;BME280;53922;52.080;4.748;2022-07-09T08:40:03;102668.59;;;20.99;71.83
67009;BME280;53922;52.080;4.748;2022-07-09T08:42:29;102665.91;;;20.87;71.77
67009;BME280;53922;52.080;4.748;2022-07-09T08:44:54;102664.09;;;20.87;71.35
67009;BME280;53922;52.080;4.748;2022-07-09T08:47:19;102663.22;;;20.88;70.64
67009;BME280;53922;52.080;4.748;2022-07-09T08:49:46;102665.03;;;21.06;71.26
67009;BME280;53922;52.080;4.748;2022-07-09T08:52:11;102665.06;;;21.13;69.33
67009;BME280;53922;52.080;4.748;2022-07-09T08:54:37;102661.50;;;21.23;70.27
67009;BME280;53922;52.080;4.748;2022-07-09T08:57:04;102657.94;;;21.33;68.55
67009;BME280;53922;52.080;4.748;2022-07-09T08:59:29;102659.72;;;21.34;68.77
67009;BME280;53922;52.080;4.748;2022-07-09T09:01:54;102660.63;;;21.35;68.45
67009;BME280;53922;52.080;4.748;2022-07-09T09:04:19;102663.31;;;21.41;70.36
67009;BME280;53922;52.080;4.748;2022-07-09T09:06:45;102657.94;;;21.39;69.63
67009;BME280;53922;52.080;4.748;2022-07-09T09:09:17;102653.47;;;21.40;70.21
67009;BME280;53922;52.080;4.748;2022-07-09T09:11:42;102666.88;;;21.21;68.79
67009;BME280;53922;52.080;4.748;2022-07-09T09:14:08;102661.44;;;20.95;69.29
67009;BME280;53922;52.080;4.748;2022-07-09T09:16:42;102654.31;;;21.13;70.09
67009;BME280;53922;52.080;4.748;2022-07-09T09:19:07;102654.38;;;21.36;68.43
67009;BME280;53922;52.080;4.748;2022-07-09T09:21:34;102660.66;;;21.70;67.12
67009;BME280;53922;52.080;4.748;2022-07-09T09:24:02;102660.59;;;22.12;64.48
67009;BME280;53922;52.080;4.748;2022-07-09T09:26:28;102665.91;;;22.52;65.09
67009;BME280;53922;52.080;4.748;2022-07-09T09:28:57;102662.13;;;22.88;62.52
67009;BME280;53922;52.080;4.748;2022-07-09T09:33:48;102677.50;;;22.65;58.01
67009;BME280;53922;52.080;4.748;2022-07-09T09:36:33;102679.97;;;23.02;58.32
67009;BME280;53922;52.080;4.748;2022-07-09T09:39:08;102678.59;;;23.75;58.50
67009;BME280;53922;52.080;4.748;2022-07-09T09:41:34;102665.78;;;22.76;56.45
67009;BME280;53922;52.080;4.748;2022-07-09T09:43:59;102667.69;;;22.47;58.98
67009;BME280;53922;52.080;4.748;2022-07-09T09:46:29;102667.63;;;22.61;58.42
67009;BME280;53922;52.080;4.748;2022-07-09T09:48:55;102671.19;;;22.68;59.32
67009;BME280;53922;52.080;4.748;2022-07-09T09:51:22;102664.88;;;22.74;58.95
67009;BME280;53922;52.080;4.748;2022-07-09T09:53:47;102674.66;;;22.89;57.61
67009;BME280;53922;52.080;4.748;2022-07-09T09:56:12;102682.88;;;22.65;56.23
67009;BME280;53922;52.080;4.748;2022-07-09T09:58:38;102678.53;;;22.10;58.19
67009;BME280;53922;52.080;4.748;2022-07-09T10:01:04;102680.31;;;22.00;58.00
67009;BME280;53922;52.080;4.748;2022-07-09T10:03:30;102674.00;;;22.40;58.22
67009;BME280;53922;52.080;4.748;2022-07-09T10:05:55;102667.69;;;22.46;55.80
67009;BME280;53922;52.080;4.748;2022-07-09T10:08:20;102674.91;;;22.37;56.75
67009;BME280;53922;52.080;4.748;2022-07-09T10:10:51;102690.09;;;22.45;55.69
67009;BME280;53922;52.080;4.748;2022-07-09T10:13:21;102685.56;;;22.56;54.91
67009;BME280;53922;52.080;4.748;2022-07-09T10:15:49;102687.19;;;22.96;55.44
67009;BME280;53922;52.080;4.748;2022-07-09T10:18:18;102694.41;;;22.86;53.51
67009;BME280;53922;52.080;4.748;2022-07-09T10:20:44;102691.91;;;22.35;53.79
67009;BME280;53922;52.080;4.748;2022-07-09T10:23:19;102699.97;;;22.49;53.86
67009;BME280;53922;52.080;4.748;2022-07-09T10:25:45;102696.41;;;22.37;55.27
67009;BME280;53922;52.080;4.748;2022-07-09T10:28:14;102705.25;;;22.69;54.49
67009;BME280;53922;52.080;4.748;2022-07-09T10:30:39;102699.97;;;22.35;55.41
67009;BME280;53922;52.080;4.748;2022-07-09T10:35:42;102695.47;;;22.35;54.01
67009;BME280;53922;52.080;4.748;2022-07-09T10:38:07;102696.34;;;22.50;54.86
67009;BME280;53922;52.080;4.748;2022-07-09T10:43:08;102694.63;;;22.23;55.34
67009;BME280;53922;52.080;4.748;2022-07-09T10:48:02;102697.28;;;21.33;60.35
67009;BME280;53922;52.080;4.748;2022-07-09T10:50:28;102691.06;;;21.77;61.63
67009;BME280;53922;52.080;4.748;2022-07-09T10:52:54;102689.28;;;22.09;59.43
67009;BME280;53922;52.080;4.748;2022-07-09T10:55:20;102701.75;;;22.34;58.73
67009;BME280;53922;52.080;4.748;2022-07-09T10:57:45;102706.19;;;22.62;56.73
67009;BME280;53922;52.080;4.748;2022-07-09T11:00:15;102702.53;;;22.74;56.98
67009;BME280;53922;52.080;4.748;2022-07-09T11:05:27;102707.06;;;22.62;54.77
67009;BME280;53922;52.080;4.748;2022-07-09T11:10:20;102709.72;;;22.78;55.86
67009;BME280;53922;52.080;4.748;2022-07-09T11:12:49;102703.34;;;22.96;56.97
67009;BME280;53922;52.080;4.748;2022-07-09T11:15:17;102710.63;;;22.70;55.03
67009;BME280;53922;52.080;4.748;2022-07-09T11:17:43;102706.25;;;22.46;56.49
67009;BME280;53922;52.080;4.748;2022-07-09T11:20:10;102705.34;;;22.26;57.63
67009;BME280;53922;52.080;4.748;2022-07-09T11:22:35;102711.56;;;22.57;54.77
67009;BME280;53922;52.080;4.748;2022-07-09T11:25:00;102707.09;;;22.53;55.64
67009;BME280;53922;52.080;4.748;2022-07-09T11:27:26;102716.91;;;22.63;55.39
67009;BME280;53922;52.080;4.748;2022-07-09T11:29:51;102719.56;;;22.80;57.17
67009;BME280;53922;52.080;4.748;2022-07-09T11:32:16;102713.19;;;22.98;56.51
67009;BME280;53922;52.080;4.748;2022-07-09T11:34:49;102720.47;;;22.73;58.23
67009;BME280;53922;52.080;4.748;2022-07-09T11:37:21;102727.75;;;22.34;56.77
67009;BME280;53922;52.080;4.748;2022-07-09T11:39:50;102730.41;;;22.49;56.88
67009;BME280;53922;52.080;4.748;2022-07-09T11:42:18;102724.97;;;22.68;54.75
67009;BME280;53922;52.080;4.748;2022-07-09T11:44:53;102720.56;;;22.47;55.46
67009;BME280;53922;52.080;4.748;2022-07-09T11:47:18;102722.34;;;22.35;56.52
67009;BME280;53922;52.080;4.748;2022-07-09T11:49:48;102718.75;;;22.55;56.61
67009;BME280;53922;52.080;4.748;2022-07-09T11:52:24;102714.03;;;23.08;54.65
67009;BME280;53922;52.080;4.748;2022-07-09T11:55:06;102719.31;;;23.30;53.61
67009;BME280;53922;52.080;4.748;2022-07-09T11:57:32;102720.22;;;23.27;53.74
67009;BME280;53922;52.080;4.748;2022-07-09T11:59:58;102711.44;;;22.88;55.37
67009;BME280;53922;52.080;4.748;2022-07-09T12:04:48;102715.09;;;22.78;54.33
67009;BME280;53922;52.080;4.748;2022-07-09T12:07:14;102692.66;;;22.77;54.26
67009;BME280;53922;52.080;4.748;2022-07-09T12:09:39;102710.63;;;22.75;55.12
67009;BME280;53922;52.080;4.748;2022-07-09T12:12:04;102716.78;;;22.97;55.85
67009;BME280;53922;52.080;4.748;2022-07-09T12:14:29;102709.66;;;22.87;55.46
67009;BME280;53922;52.080;4.748;2022-07-09T12:16:56;102710.47;;;23.00;55.84
67009;BME280;53922;52.080;4.748;2022-07-09T12:19:21;102708.78;;;22.86;55.39
67009;BME280;53922;52.080;4.748;2022-07-09T12:21:47;102704.38;;;22.62;53.78
67009;BME280;53922;52.080;4.748;2022-07-09T12:24:12;102709.69;;;22.81;54.68
67009;BME280;53922;52.080;4.748;2022-07-09T12:26:38;102708.72;;;22.96;53.71
67009;BME280;53922;52.080;4.748;2022-07-09T12:29:03;102711.19;;;23.38;51.75
67009;BME280;53922;52.080;4.748;2022-07-09T12:31:28;102705.53;;;23.75;52.19
67009;BME280;53922;52.080;4.748;2022-07-09T12:33:53;102702.97;;;23.56;52.48
67009;BME280;53922;52.080;4.748;2022-07-09T12:36:18;102704.22;;;22.98;54.33
67009;BME280;53922;52.080;4.748;2022-07-09T12:38:44;102689.19;;;22.47;55.03
67009;BME280;53922;52.080;4.748;2022-07-09T12:41:09;102692.72;;;22.73;55.57
67009;BME280;53922;52.080;4.748;2022-07-09T12:43:34;102690.81;;;22.92;56.07
67009;BME280;53922;52.080;4.748;2022-07-09T12:46:00;102688.19;;;22.76;55.58
67009;BME280;53922;52.080;4.748;2022-07-09T12:48:25;102686.56;;;22.19;56.63
67009;BME280;53922;52.080;4.748;2022-07-09T12:50:51;102690.09;;;22.52;57.05
67009;BME280;53922;52.080;4.748;2022-07-09T12:53:16;102684.69;;;22.56;55.48
67009;BME280;53922;52.080;4.748;2022-07-09T12:55:41;102682.91;;;22.54;56.42
67009;BME280;53922;52.080;4.748;2022-07-09T12:58:07;102683.84;;;22.35;58.30